sensor_id;sensor_type;location;lat;lon;timestamp;temperature;humidity
65637;DHT22;52327;42.622;23.316;2023-02-01T00:01:08;-0.35;79.39
65637;DHT22;52327;42.622;23.316;2023-02-01T00:03:33;-0.38;79.55
65637;DHT22;52327;42.622;23.316;2023-02-01T00:05:59;-0.38;78.76
65637;DHT22;52327;42.622;23.316;2023-02-01T00:08:25;-0.37;79.60
65637;DHT22;52327;42.622;23.316;2023-02-01T00:11:02;-0.27;79.91
65637;DHT22;52327;42.622;23.316;2023-02-01T00:13:31;-0.41;79.09
65637;DHT22;52327;42.622;23.316;2023-02-01T00:16:12;-0.42;79.09
65637;DHT22;52327;42.622;23.316;2023-02-01T00:18:38;-0.49;78.14
65637;DHT22;52327;42.622;23.316;2023-02-01T00:21:04;-0.48;79.06
65637;DHT22;52327;42.622;23.316;2023-02-01T00:23:34;-0.49;79.30
65637;DHT22;52327;42.622;23.316;2023-02-01T00:26:01;-0.48;79.11
65637;DHT22;52327;42.622;23.316;2023-02-01T00:28:27;-0.54;78.41
65637;DHT22;52327;42.622;23.316;2023-02-01T00:31:00;-0.57;78.48
65637;DHT22;52327;42.622;23.316;2023-02-01T00:33:26;-0.54;78.25
65637;DHT22;52327;42.622;23.316;2023-02-01T00:35:59;-0.54;77.76
65637;DHT22;52327;42.622;23.316;2023-02-01T00:38:26;-0.52;78.73
65637;DHT22;52327;42.622;23.316;2023-02-01T00:40:53;-0.54;78.30
65637;DHT22;52327;42.622;23.316;2023-02-01T00:43:19;-0.55;80.35
65637;DHT22;52327;42.622;23.316;2023-02-01T00:45:45;-0.44;77.49
65637;DHT22;52327;42.622;23.316;2023-02-01T00:48:11;-0.62;77.35
65637;DHT22;52327;42.622;23.316;2023-02-01T00:50:41;-0.73;77.71
65637;DHT22;52327;42.622;23.316;2023-02-01T00:53:08;-0.76;78.73
65637;DHT22;52327;42.622;23.316;2023-02-01T00:55:34;-0.86;77.95
65637;DHT22;52327;42.622;23.316;2023-02-01T00:57:59;-0.90;79.35
65637;DHT22;52327;42.622;23.316;2023-02-01T01:00:26;-1.01;78.65
65637;DHT22;52327;42.622;23.316;2023-02-01T01:02:51;-0.96;78.89
65637;DHT22;52327;42.622;23.316;2023-02-01T01:05:17;-1.03;78.02
65637;DHT22;52327;42.622;23.316;2023-02-01T01:07:42;-1.03;77.55
65637;DHT22;52327;42.622;23.316;2023-02-01T01:10:08;-1.06;76.84
65637;DHT22;52327;42.622;23.316;2023-02-01T01:12:33;-1.01;76.93
65637;DHT22;52327;42.622;23.316;2023-02-01T01:14:59;-1.00;77.66
65637;DHT22;52327;42.622;23.316;2023-02-01T01:17:24;-0.99;76.40
65637;DHT22;52327;42.622;23.316;2023-02-01T01:19:49;-0.92;76.58
65637;DHT22;52327;42.622;23.316;2023-02-01T01:22:15;-0.86;76.02
65637;DHT22;52327;42.622;23.316;2023-02-01T01:24:40;-0.85;76.64
65637;DHT22;52327;42.622;23.316;2023-02-01T01:27:06;-0.93;75.84
65637;DHT22;52327;42.622;23.316;2023-02-01T01:29:31;-0.93;76.63
65637;DHT22;52327;42.622;23.316;2023-02-01T01:31:56;-1.03;75.69
65637;DHT22;52327;42.622;23.316;2023-02-01T01:34:22;-1.01;76.84
65637;DHT22;52327;42.622;23.316;2023-02-01T01:36:47;-1.01;76.02
65637;DHT22;52327;42.622;23.316;2023-02-01T01:39:12;-1.10;76.74
65637;DHT22;52327;42.622;23.316;2023-02-01T01:41:38;-1.09;77.07
65637;DHT22;52327;42.622;23.316;2023-02-01T01:47:08;-0.99;77.17
65637;DHT22;52327;42.622;23.316;2023-02-01T01:49:35;-1.04;76.42
65637;DHT22;52327;42.622;23.316;2023-02-01T01:52:02;-1.09;75.86
65637;DHT22;52327;42.622;23.316;2023-02-01T01:54:57;-1.09;77.31
65637;DHT22;52327;42.622;23.316;2023-02-01T01:57:44;-1.11;76.24
65637;DHT22;52327;42.622;23.316;2023-02-01T02:00:15;-1.24;75.36
65637;DHT22;52327;42.622;23.316;2023-02-01T02:02:45;-1.27;77.64
65637;DHT22;52327;42.622;23.316;2023-02-01T02:05:12;-1.29;76.57
65637;DHT22;52327;42.622;23.316;2023-02-01T02:07:41;-1.33;77.85
65637;DHT22;52327;42.622;23.316;2023-02-01T02:10:09;-1.34;76.69
65637;DHT22;52327;42.622;23.316;2023-02-01T02:12:42;-1.40;76.27
65637;DHT22;52327;42.622;23.316;2023-02-01T02:15:11;-1.39;76.20
65637;DHT22;52327;42.622;23.316;2023-02-01T02:17:58;-1.36;73.06
65637;DHT22;52327;42.622;23.316;2023-02-01T02:34:49;-0.99;68.53
65637;DHT22;52327;42.622;23.316;2023-02-01T02:37:46;-0.96;70.25
65637;DHT22;52327;42.622;23.316;2023-02-01T02:40:27;-0.93;69.14
65637;DHT22;52327;42.622;23.316;2023-02-01T02:43:21;-0.86;70.48
65637;DHT22;52327;42.622;23.316;2023-02-01T02:46:16;-0.86;71.50
65637;DHT22;52327;42.622;23.316;2023-02-01T02:52:13;-0.73;71.35
65637;DHT22;52327;42.622;23.316;2023-02-01T02:55:01;-0.75;69.51
65637;DHT22;52327;42.622;23.316;2023-02-01T02:57:37;-0.72;70.54
65637;DHT22;52327;42.622;23.316;2023-02-01T03:00:27;-0.69;70.66
65637;DHT22;52327;42.622;23.316;2023-02-01T03:03:11;-0.70;71.30
65637;DHT22;52327;42.622;23.316;2023-02-01T03:05:55;-0.75;71.66
65637;DHT22;52327;42.622;23.316;2023-02-01T03:08:26;-0.70;70.99
65637;DHT22;52327;42.622;23.316;2023-02-01T03:11:06;-0.73;72.87
65637;DHT22;52327;42.622;23.316;2023-02-01T03:16:35;-0.70;72.36
65637;DHT22;52327;42.622;23.316;2023-02-01T03:19:14;-0.68;72.31
65637;DHT22;52327;42.622;23.316;2023-02-01T03:21:41;-0.69;70.09
65637;DHT22;52327;42.622;23.316;2023-02-01T03:26:43;-0.70;70.86
65637;DHT22;52327;42.622;23.316;2023-02-01T03:29:17;-0.75;72.30
65637;DHT22;52327;42.622;23.316;2023-02-01T03:31:46;-0.72;72.55
65637;DHT22;52327;42.622;23.316;2023-02-01T03:34:12;-0.70;71.87
65637;DHT22;52327;42.622;23.316;2023-02-01T03:37:01;-0.73;72.53
65637;DHT22;52327;42.622;23.316;2023-02-01T03:39:30;-0.66;72.65
65637;DHT22;52327;42.622;23.316;2023-02-01T03:41:59;-0.69;73.60
65637;DHT22;52327;42.622;23.316;2023-02-01T03:44:57;-0.64;72.96
65637;DHT22;52327;42.622;23.316;2023-02-01T03:47:29;-0.66;72.62
65637;DHT22;52327;42.622;23.316;2023-02-01T03:50:02;-0.55;72.73
65637;DHT22;52327;42.622;23.316;2023-02-01T03:52:36;-0.61;71.65
65637;DHT22;52327;42.622;23.316;2023-02-01T03:55:05;-0.62;72.36
65637;DHT22;52327;42.622;23.316;2023-02-01T03:57:34;-0.58;72.29
65637;DHT22;52327;42.622;23.316;2023-02-01T04:02:33;-0.51;71.68
65637;DHT22;52327;42.622;23.316;2023-02-01T04:04:59;-0.45;72.48
65637;DHT22;52327;42.622;23.316;2023-02-01T04:07:24;-0.48;72.75
65637;DHT22;52327;42.622;23.316;2023-02-01T04:09:50;-0.49;71.75
65637;DHT22;52327;42.622;23.316;2023-02-01T04:12:15;-0.45;72.75
65637;DHT22;52327;42.622;23.316;2023-02-01T04:14:40;-0.39;72.24
65637;DHT22;52327;42.622;23.316;2023-02-01T04:17:06;-0.45;73.00
65637;DHT22;52327;42.622;23.316;2023-02-01T04:19:31;-0.48;73.50
65637;DHT22;52327;42.622;23.316;2023-02-01T04:21:57;-0.51;74.37
65637;DHT22;52327;42.622;23.316;2023-02-01T04:24:22;-0.52;74.18
65637;DHT22;52327;42.622;23.316;2023-02-01T04:26:48;-0.52;74.79
65637;DHT22;52327;42.622;23.316;2023-02-01T04:29:13;-0.54;75.19
65637;DHT22;52327;42.622;23.316;2023-02-01T04:31:38;-0.51;75.02
65637;DHT22;52327;42.622;23.316;2023-02-01T04:34:04;-0.49;75.47
65637;DHT22;52327;42.622;23.316;2023-02-01T04:36:29;-0.45;75.63
65637;DHT22;52327;42.622;23.316;2023-02-01T04:38:55;-0.57;75.52
65637;DHT22;52327;42.622;23.316;2023-02-01T04:41:21;-0.49;75.92
65637;DHT22;52327;42.622;23.316;2023-02-01T04:43:49;-0.41;75.48
65637;DHT22;52327;42.622;23.316;2023-02-01T04:46:15;-0.34;76.41
65637;DHT22;52327;42.622;23.316;2023-02-01T04:48:41;-0.35;76.54
65637;DHT22;52327;42.622;23.316;2023-02-01T04:51:07;-0.34;76.81
65637;DHT22;52327;42.622;23.316;2023-02-01T04:53:33;-0.32;76.22
65637;DHT22;52327;42.622;23.316;2023-02-01T04:55:58;-0.25;76.90
65637;DHT22;52327;42.622;23.316;2023-02-01T04:58:24;-0.15;77.68
65637;DHT22;52327;42.622;23.316;2023-02-01T05:00:49;-0.07;76.40
65637;DHT22;52327;42.622;23.316;2023-02-01T05:03:15;-0.06;76.57
65637;DHT22;52327;42.622;23.316;2023-02-01T05:05:40;-0.21;75.82
65637;DHT22;52327;42.622;23.316;2023-02-01T05:08:06;-0.27;76.25
65637;DHT22;52327;42.622;23.316;2023-02-01T05:10:31;-0.22;77.14
65637;DHT22;52327;42.622;23.316;2023-02-01T05:12:56;-0.13;76.31
65637;DHT22;52327;42.622;23.316;2023-02-01T05:15:40;-0.15;76.63
65637;DHT22;52327;42.622;23.316;2023-02-01T05:18:06;-0.19;76.34
65637;DHT22;52327;42.622;23.316;2023-02-01T05:20:31;-0.17;76.21
65637;DHT22;52327;42.622;23.316;2023-02-01T05:22:57;-0.15;76.59
65637;DHT22;52327;42.622;23.316;2023-02-01T05:25:22;-0.17;76.83
65637;DHT22;52327;42.622;23.316;2023-02-01T05:27:48;-0.15;77.33
65637;DHT22;52327;42.622;23.316;2023-02-01T05:30:13;-0.14;76.91
65637;DHT22;52327;42.622;23.316;2023-02-01T05:32:39;-0.06;76.45
65637;DHT22;52327;42.622;23.316;2023-02-01T05:35:05;-0.01;77.36
65637;DHT22;52327;42.622;23.316;2023-02-01T05:37:30;-0.01;76.69
65637;DHT22;52327;42.622;23.316;2023-02-01T05:39:56;-0.04;76.23
65637;DHT22;52327;42.622;23.316;2023-02-01T05:42:21;0.00;75.24
65637;DHT22;52327;42.622;23.316;2023-02-01T05:44:46;0.09;75.30
65637;DHT22;52327;42.622;23.316;2023-02-01T05:47:12;0.14;74.94
65637;DHT22;52327;42.622;23.316;2023-02-01T05:49:37;0.14;73.80
65637;DHT22;52327;42.622;23.316;2023-02-01T05:52:03;0.14;74.73
65637;DHT22;52327;42.622;23.316;2023-02-01T05:54:29;0.23;74.38
65637;DHT22;52327;42.622;23.316;2023-02-01T05:56:54;0.21;73.46
65637;DHT22;52327;42.622;23.316;2023-02-01T05:59:20;0.21;73.24
65637;DHT22;52327;42.622;23.316;2023-02-01T06:01:45;0.24;73.12
65637;DHT22;52327;42.622;23.316;2023-02-01T06:04:10;0.36;72.68
65637;DHT22;52327;42.622;23.316;2023-02-01T06:06:36;0.44;71.58
65637;DHT22;52327;42.622;23.316;2023-02-01T06:09:02;0.53;71.50
65637;DHT22;52327;42.622;23.316;2023-02-01T06:11:28;0.54;70.16
65637;DHT22;52327;42.622;23.316;2023-02-01T06:13:53;0.54;69.94
65637;DHT22;52327;42.622;23.316;2023-02-01T06:16:20;0.55;69.67
65637;DHT22;52327;42.622;23.316;2023-02-01T06:18:46;0.60;68.94
65637;DHT22;52327;42.622;23.316;2023-02-01T06:21:11;0.62;70.03
65637;DHT22;52327;42.622;23.316;2023-02-01T06:23:38;0.61;70.12
65637;DHT22;52327;42.622;23.316;2023-02-01T06:26:06;0.72;69.86
65637;DHT22;52327;42.622;23.316;2023-02-01T06:28:33;0.75;69.23
65637;DHT22;52327;42.622;23.316;2023-02-01T06:31:08;0.74;68.62
65637;DHT22;52327;42.622;23.316;2023-02-01T06:33:34;0.72;70.19
65637;DHT22;52327;42.622;23.316;2023-02-01T06:36:02;0.76;68.79
65637;DHT22;52327;42.622;23.316;2023-02-01T06:38:29;0.82;68.73
65637;DHT22;52327;42.622;23.316;2023-02-01T06:40:56;0.85;68.44
65637;DHT22;52327;42.622;23.316;2023-02-01T06:43:22;0.86;68.09
65637;DHT22;52327;42.622;23.316;2023-02-01T06:45:48;0.81;68.52
65637;DHT22;52327;42.622;23.316;2023-02-01T06:48:14;0.85;68.93
65637;DHT22;52327;42.622;23.316;2023-02-01T06:50:39;0.88;68.63
65637;DHT22;52327;42.622;23.316;2023-02-01T06:53:04;0.95;68.15
65637;DHT22;52327;42.622;23.316;2023-02-01T06:55:30;1.00;67.51
65637;DHT22;52327;42.622;23.316;2023-02-01T06:57:55;0.96;68.45
65637;DHT22;52327;42.622;23.316;2023-02-01T07:00:22;0.86;68.91
65637;DHT22;52327;42.622;23.316;2023-02-01T07:02:48;0.88;68.63
65637;DHT22;52327;42.622;23.316;2023-02-01T07:05:14;0.85;69.07
65637;DHT22;52327;42.622;23.316;2023-02-01T07:07:39;0.89;68.86
65637;DHT22;52327;42.622;23.316;2023-02-01T07:10:05;0.96;68.62
65637;DHT22;52327;42.622;23.316;2023-02-01T07:12:30;0.95;69.74
65637;DHT22;52327;42.622;23.316;2023-02-01T07:14:56;0.93;68.37
65637;DHT22;52327;42.622;23.316;2023-02-01T07:17:22;0.82;68.90
65637;DHT22;52327;42.622;23.316;2023-02-01T07:19:47;0.86;68.40
65637;DHT22;52327;42.622;23.316;2023-02-01T07:22:16;0.84;68.65
65637;DHT22;52327;42.622;23.316;2023-02-01T07:24:41;0.95;68.57
65637;DHT22;52327;42.622;23.316;2023-02-01T07:27:07;1.06;68.16
65637;DHT22;52327;42.622;23.316;2023-02-01T07:29:32;1.10;66.90
65637;DHT22;52327;42.622;23.316;2023-02-01T07:31:57;1.12;68.50
65637;DHT22;52327;42.622;23.316;2023-02-01T07:34:23;1.09;68.29
65637;DHT22;52327;42.622;23.316;2023-02-01T07:36:48;1.13;68.36
65637;DHT22;52327;42.622;23.316;2023-02-01T07:39:14;1.26;67.09
65637;DHT22;52327;42.622;23.316;2023-02-01T07:41:39;1.25;66.82
65637;DHT22;52327;42.622;23.316;2023-02-01T07:44:05;1.26;67.18
65637;DHT22;52327;42.622;23.316;2023-02-01T07:46:30;1.30;66.68
65637;DHT22;52327;42.622;23.316;2023-02-01T07:48:56;1.27;67.06
65637;DHT22;52327;42.622;23.316;2023-02-01T07:51:21;1.32;67.45
65637;DHT22;52327;42.622;23.316;2023-02-01T07:53:46;1.32;66.34
65637;DHT22;52327;42.622;23.316;2023-02-01T07:56:14;1.43;67.45
65637;DHT22;52327;42.622;23.316;2023-02-01T07:58:40;1.35;66.36
65637;DHT22;52327;42.622;23.316;2023-02-01T08:01:17;1.26;66.29
65637;DHT22;52327;42.622;23.316;2023-02-01T08:03:53;1.42;66.42
65637;DHT22;52327;42.622;23.316;2023-02-01T08:06:20;1.44;66.10
65637;DHT22;52327;42.622;23.316;2023-02-01T08:08:47;1.44;66.07
65637;DHT22;52327;42.622;23.316;2023-02-01T08:11:13;1.50;66.34
65637;DHT22;52327;42.622;23.316;2023-02-01T08:13:40;1.47;66.28
65637;DHT22;52327;42.622;23.316;2023-02-01T08:16:07;1.54;67.24
65637;DHT22;52327;42.622;23.316;2023-02-01T08:18:33;1.54;66.94
65637;DHT22;52327;42.622;23.316;2023-02-01T08:21:07;1.58;66.52
65637;DHT22;52327;42.622;23.316;2023-02-01T08:23:34;1.67;66.39
65637;DHT22;52327;42.622;23.316;2023-02-01T08:26:20;1.67;65.93
65637;DHT22;52327;42.622;23.316;2023-02-01T08:28:49;1.84;66.88
65637;DHT22;52327;42.622;23.316;2023-02-01T08:31:17;1.88;65.23
65637;DHT22;52327;42.622;23.316;2023-02-01T08:33:44;1.88;65.33
65637;DHT22;52327;42.622;23.316;2023-02-01T08:36:12;2.07;65.82
65637;DHT22;52327;42.622;23.316;2023-02-01T08:38:39;1.94;65.43
65637;DHT22;52327;42.622;23.316;2023-02-01T08:41:18;1.97;66.18
65637;DHT22;52327;42.622;23.316;2023-02-01T08:43:44;1.99;66.05
65637;DHT22;52327;42.622;23.316;2023-02-01T08:46:10;1.98;67.22
65637;DHT22;52327;42.622;23.316;2023-02-01T08:48:36;2.09;66.79
65637;DHT22;52327;42.622;23.316;2023-02-01T08:51:07;2.26;67.47
65637;DHT22;52327;42.622;23.316;2023-02-01T08:53:33;2.26;66.71
65637;DHT22;52327;42.622;23.316;2023-02-01T08:55:58;2.24;65.77
65637;DHT22;52327;42.622;23.316;2023-02-01T08:58:24;2.46;69.16
65637;DHT22;52327;42.622;23.316;2023-02-01T09:00:50;2.45;65.33
65637;DHT22;52327;42.622;23.316;2023-02-01T09:03:16;2.35;66.71
65637;DHT22;52327;42.622;23.316;2023-02-01T09:05:42;2.17;67.05
65637;DHT22;52327;42.622;23.316;2023-02-01T09:08:07;2.24;68.38
65637;DHT22;52327;42.622;23.316;2023-02-01T09:10:33;2.08;68.11
65637;DHT22;52327;42.622;23.316;2023-02-01T09:12:59;2.24;65.80
65637;DHT22;52327;42.622;23.316;2023-02-01T09:15:25;2.26;65.98
65637;DHT22;52327;42.622;23.316;2023-02-01T09:17:50;2.36;65.66
65637;DHT22;52327;42.622;23.316;2023-02-01T09:20:16;2.53;67.79
65637;DHT22;52327;42.622;23.316;2023-02-01T09:22:42;2.33;66.29
65637;DHT22;52327;42.622;23.316;2023-02-01T09:25:07;2.48;66.85
65637;DHT22;52327;42.622;23.316;2023-02-01T09:27:33;2.45;65.07
65637;DHT22;52327;42.622;23.316;2023-02-01T09:29:59;2.46;66.60
65637;DHT22;52327;42.622;23.316;2023-02-01T09:32:24;2.45;66.30
65637;DHT22;52327;42.622;23.316;2023-02-01T09:34:52;2.53;64.98
65637;DHT22;52327;42.622;23.316;2023-02-01T09:37:18;2.64;62.91
65637;DHT22;52327;42.622;23.316;2023-02-01T09:39:43;2.62;64.42
65637;DHT22;52327;42.622;23.316;2023-02-01T09:42:25;2.57;63.13
65637;DHT22;52327;42.622;23.316;2023-02-01T09:45:10;2.50;66.02
65637;DHT22;52327;42.622;23.316;2023-02-01T09:47:41;2.46;63.09
65637;DHT22;52327;42.622;23.316;2023-02-01T09:50:12;2.49;66.27
65637;DHT22;52327;42.622;23.316;2023-02-01T09:53:05;2.49;62.92
65637;DHT22;52327;42.622;23.316;2023-02-01T09:55:33;2.49;63.46
65637;DHT22;52327;42.622;23.316;2023-02-01T09:58:36;2.49;61.64
65637;DHT22;52327;42.622;23.316;2023-02-01T10:01:04;2.54;63.98
65637;DHT22;52327;42.622;23.316;2023-02-01T10:03:33;2.49;63.28
65637;DHT22;52327;42.622;23.316;2023-02-01T10:06:27;2.67;62.95
65637;DHT22;52327;42.622;23.316;2023-02-01T10:09:28;2.80;64.78
65637;DHT22;52327;42.622;23.316;2023-02-01T10:14:44;2.89;64.26
65637;DHT22;52327;42.622;23.316;2023-02-01T10:23:43;2.52;62.07
65637;DHT22;52327;42.622;23.316;2023-02-01T10:28:46;2.75;63.87
65637;DHT22;52327;42.622;23.316;2023-02-01T10:31:13;2.83;62.66
65637;DHT22;52327;42.622;23.316;2023-02-01T10:33:59;2.82;62.20
65637;DHT22;52327;42.622;23.316;2023-02-01T10:36:32;2.93;60.82
65637;DHT22;52327;42.622;23.316;2023-02-01T10:39:02;3.08;61.33
65637;DHT22;52327;42.622;23.316;2023-02-01T10:41:34;3.24;61.72
65637;DHT22;52327;42.622;23.316;2023-02-01T10:44:01;3.42;59.72
65637;DHT22;52327;42.622;23.316;2023-02-01T10:46:29;3.62;57.74
65637;DHT22;52327;42.622;23.316;2023-02-01T10:48:58;3.75;58.76
65637;DHT22;52327;42.622;23.316;2023-02-01T10:51:30;3.93;57.49
65637;DHT22;52327;42.622;23.316;2023-02-01T10:54:04;3.56;59.15
65637;DHT22;52327;42.622;23.316;2023-02-01T10:56:37;3.41;58.93
65637;DHT22;52327;42.622;23.316;2023-02-01T10:59:15;3.20;60.88
65637;DHT22;52327;42.622;23.316;2023-02-01T11:01:43;2.94;61.15
65637;DHT22;52327;42.622;23.316;2023-02-01T11:04:12;2.97;61.16
65637;DHT22;52327;42.622;23.316;2023-02-01T11:06:40;2.94;60.39
65637;DHT22;52327;42.622;23.316;2023-02-01T11:16:54;2.96;60.40
65637;DHT22;52327;42.622;23.316;2023-02-01T11:19:20;3.01;60.08
65637;DHT22;52327;42.622;23.316;2023-02-01T11:21:53;2.91;60.73
65637;DHT22;52327;42.622;23.316;2023-02-01T11:24:32;2.87;60.53
65637;DHT22;52327;42.622;23.316;2023-02-01T11:27:00;2.87;60.33
65637;DHT22;52327;42.622;23.316;2023-02-01T11:29:37;2.97;59.92
65637;DHT22;52327;42.622;23.316;2023-02-01T11:32:08;3.03;59.74
65637;DHT22;52327;42.622;23.316;2023-02-01T11:34:41;3.14;59.62
65637;DHT22;52327;42.622;23.316;2023-02-01T11:37:18;3.27;58.13
65637;DHT22;52327;42.622;23.316;2023-02-01T11:39:54;3.28;59.63
65637;DHT22;52327;42.622;23.316;2023-02-01T11:42:20;3.30;57.99
65637;DHT22;52327;42.622;23.316;2023-02-01T11:44:46;3.24;58.66
65637;DHT22;52327;42.622;23.316;2023-02-01T11:49:44;3.23;59.55
65637;DHT22;52327;42.622;23.316;2023-02-01T12:00:16;3.30;62.52
65637;DHT22;52327;42.622;23.316;2023-02-01T12:13:55;3.36;58.53
65637;DHT22;52327;42.622;23.316;2023-02-01T12:22:15;3.28;57.05
65637;DHT22;52327;42.622;23.316;2023-02-01T12:25:21;3.30;58.89
65637;DHT22;52327;42.622;23.316;2023-02-01T12:31:19;3.39;57.60
65637;DHT22;52327;42.622;23.316;2023-02-01T12:42:36;3.30;57.67
65637;DHT22;52327;42.622;23.316;2023-02-01T12:45:36;3.41;57.83
65637;DHT22;52327;42.622;23.316;2023-02-01T12:48:53;3.41;57.70
65637;DHT22;52327;42.622;23.316;2023-02-01T12:51:09;3.64;57.74
65637;DHT22;52327;42.622;23.316;2023-02-01T12:56:26;3.59;56.19
65637;DHT22;52327;42.622;23.316;2023-02-01T12:58:55;3.55;57.37
65637;DHT22;52327;42.622;23.316;2023-02-01T13:01:41;3.38;57.70
65637;DHT22;52327;42.622;23.316;2023-02-01T13:04:20;3.35;58.07
65637;DHT22;52327;42.622;23.316;2023-02-01T13:06:53;3.35;58.51
65637;DHT22;52327;42.622;23.316;2023-02-01T13:09:26;3.35;56.23
65637;DHT22;52327;42.622;23.316;2023-02-01T13:11:54;3.35;57.24
65637;DHT22;52327;42.622;23.316;2023-02-01T13:14:38;3.36;57.50
65637;DHT22;52327;42.622;23.316;2023-02-01T13:17:10;3.35;57.62
65637;DHT22;52327;42.622;23.316;2023-02-01T13:22:11;3.48;55.41
65637;DHT22;52327;42.622;23.316;2023-02-01T13:27:14;3.48;56.00
65637;DHT22;52327;42.622;23.316;2023-02-01T13:38:11;3.66;55.62
65637;DHT22;52327;42.622;23.316;2023-02-01T13:43:26;3.65;53.85
65637;DHT22;52327;42.622;23.316;2023-02-01T13:45:56;3.68;52.33
65637;DHT22;52327;42.622;23.316;2023-02-01T13:48:29;3.66;53.12
65637;DHT22;52327;42.622;23.316;2023-02-01T13:50:57;3.72;52.81
65637;DHT22;52327;42.622;23.316;2023-02-01T13:53:37;3.69;52.79
65637;DHT22;52327;42.622;23.316;2023-02-01T13:56:16;3.82;53.09
65637;DHT22;52327;42.622;23.316;2023-02-01T13:58:45;3.89;52.28
65637;DHT22;52327;42.622;23.316;2023-02-01T14:03:56;4.03;54.17
65637;DHT22;52327;42.622;23.316;2023-02-01T14:11:48;4.06;54.04
65637;DHT22;52327;42.622;23.316;2023-02-01T14:21:48;3.85;54.71
65637;DHT22;52327;42.622;23.316;2023-02-01T14:24:27;3.81;54.53
65637;DHT22;52327;42.622;23.316;2023-02-01T14:26:53;3.73;54.89
65637;DHT22;52327;42.622;23.316;2023-02-01T14:37:26;3.75;53.33
65637;DHT22;52327;42.622;23.316;2023-02-01T14:47:42;3.41;57.39
65637;DHT22;52327;42.622;23.316;2023-02-01T14:58:44;3.36;58.33
65637;DHT22;52327;42.622;23.316;2023-02-01T15:01:25;3.42;58.08
65637;DHT22;52327;42.622;23.316;2023-02-01T15:09:28;3.46;54.85
65637;DHT22;52327;42.622;23.316;2023-02-01T15:14:46;3.56;55.58
65637;DHT22;52327;42.622;23.316;2023-02-01T15:17:23;3.62;54.40
65637;DHT22;52327;42.622;23.316;2023-02-01T15:19:57;3.59;56.31
65637;DHT22;52327;42.622;23.316;2023-02-01T15:22:24;3.58;55.66
65637;DHT22;52327;42.622;23.316;2023-02-01T15:24:57;3.52;55.50
65637;DHT22;52327;42.622;23.316;2023-02-01T15:27:23;3.51;56.40
65637;DHT22;52327;42.622;23.316;2023-02-01T15:29:49;3.46;57.09
65637;DHT22;52327;42.622;23.316;2023-02-01T15:32:38;3.42;57.48
65637;DHT22;52327;42.622;23.316;2023-02-01T15:35:05;3.38;57.66
65637;DHT22;52327;42.622;23.316;2023-02-01T15:37:31;3.42;56.52
65637;DHT22;52327;42.622;23.316;2023-02-01T15:42:35;3.50;55.14
65637;DHT22;52327;42.622;23.316;2023-02-01T15:45:01;3.54;53.28
65637;DHT22;52327;42.622;23.316;2023-02-01T15:47:28;3.65;54.28
65637;DHT22;52327;42.622;23.316;2023-02-01T15:49:57;3.64;53.25
65637;DHT22;52327;42.622;23.316;2023-02-01T15:52:35;3.62;54.91
65637;DHT22;52327;42.622;23.316;2023-02-01T15:55:06;3.64;53.40
65637;DHT22;52327;42.622;23.316;2023-02-01T15:57:35;3.73;52.34
65637;DHT22;52327;42.622;23.316;2023-02-01T16:00:05;3.76;49.89
65637;DHT22;52327;42.622;23.316;2023-02-01T16:02:36;3.89;49.29
65637;DHT22;52327;42.622;23.316;2023-02-01T16:05:05;4.00;50.21
65637;DHT22;52327;42.622;23.316;2023-02-01T16:07:33;3.99;50.85
65637;DHT22;52327;42.622;23.316;2023-02-01T16:10:20;3.95;50.78
65637;DHT22;52327;42.622;23.316;2023-02-01T16:12:48;3.92;50.78
65637;DHT22;52327;42.622;23.316;2023-02-01T16:15:14;3.93;52.27
65637;DHT22;52327;42.622;23.316;2023-02-01T16:17:39;3.75;53.26
65637;DHT22;52327;42.622;23.316;2023-02-01T16:20:06;3.55;54.85
65637;DHT22;52327;42.622;23.316;2023-02-01T16:22:31;3.52;54.54
65637;DHT22;52327;42.622;23.316;2023-02-01T16:24:57;3.44;56.00
65637;DHT22;52327;42.622;23.316;2023-02-01T16:27:22;3.38;56.78
65637;DHT22;52327;42.622;23.316;2023-02-01T16:29:48;3.31;56.97
65637;DHT22;52327;42.622;23.316;2023-02-01T16:32:17;3.25;58.43
65637;DHT22;52327;42.622;23.316;2023-02-01T16:34:44;3.27;58.54
65637;DHT22;52327;42.622;23.316;2023-02-01T16:37:20;3.24;58.92
65637;DHT22;52327;42.622;23.316;2023-02-01T16:39:46;3.18;59.22
65637;DHT22;52327;42.622;23.316;2023-02-01T16:42:12;3.11;59.95
65637;DHT22;52327;42.622;23.316;2023-02-01T16:44:39;3.11;59.99
65637;DHT22;52327;42.622;23.316;2023-02-01T16:47:12;3.07;59.57
65637;DHT22;52327;42.622;23.316;2023-02-01T16:49:41;3.13;60.21
65637;DHT22;52327;42.622;23.316;2023-02-01T16:52:13;3.17;58.10
65637;DHT22;52327;42.622;23.316;2023-02-01T16:54:39;3.20;58.41
65637;DHT22;52327;42.622;23.316;2023-02-01T16:57:04;3.24;58.81
65637;DHT22;52327;42.622;23.316;2023-02-01T16:59:30;3.25;58.78
65637;DHT22;52327;42.622;23.316;2023-02-01T17:01:55;3.20;58.21
65637;DHT22;52327;42.622;23.316;2023-02-01T17:04:20;3.21;58.47
65637;DHT22;52327;42.622;23.316;2023-02-01T17:06:46;3.21;59.35
65637;DHT22;52327;42.622;23.316;2023-02-01T17:09:14;3.17;59.95
65637;DHT22;52327;42.622;23.316;2023-02-01T17:11:39;3.18;59.38
65637;DHT22;52327;42.622;23.316;2023-02-01T17:14:16;3.14;59.67
65637;DHT22;52327;42.622;23.316;2023-02-01T17:16:43;3.15;58.58
65637;DHT22;52327;42.622;23.316;2023-02-01T17:19:14;3.21;58.73
65637;DHT22;52327;42.622;23.316;2023-02-01T17:21:47;3.15;59.07
65637;DHT22;52327;42.622;23.316;2023-02-01T17:24:16;3.15;58.73
65637;DHT22;52327;42.622;23.316;2023-02-01T17:26:43;3.15;58.44
65637;DHT22;52327;42.622;23.316;2023-02-01T17:29:09;3.24;59.15
65637;DHT22;52327;42.622;23.316;2023-02-01T17:31:38;3.27;59.87
65637;DHT22;52327;42.622;23.316;2023-02-01T17:34:04;3.24;57.97
65637;DHT22;52327;42.622;23.316;2023-02-01T17:36:30;3.32;58.08
65637;DHT22;52327;42.622;23.316;2023-02-01T17:38:55;3.35;57.55
65637;DHT22;52327;42.622;23.316;2023-02-01T17:41:21;3.30;58.03
65637;DHT22;52327;42.622;23.316;2023-02-01T17:43:47;3.27;58.89
65637;DHT22;52327;42.622;23.316;2023-02-01T17:46:15;3.30;58.42
65637;DHT22;52327;42.622;23.316;2023-02-01T17:48:41;3.21;59.10
65637;DHT22;52327;42.622;23.316;2023-02-01T17:51:17;3.23;59.06
65637;DHT22;52327;42.622;23.316;2023-02-01T17:53:43;3.18;58.41
65637;DHT22;52327;42.622;23.316;2023-02-01T17:56:21;3.18;57.91
65637;DHT22;52327;42.622;23.316;2023-02-01T17:58:48;3.25;57.46
65637;DHT22;52327;42.622;23.316;2023-02-01T18:01:17;3.14;59.35
65637;DHT22;52327;42.622;23.316;2023-02-01T18:03:43;3.14;58.68
65637;DHT22;52327;42.622;23.316;2023-02-01T18:06:12;3.13;58.68
65637;DHT22;52327;42.622;23.316;2023-02-01T18:08:38;3.05;58.92
65637;DHT22;52327;42.622;23.316;2023-02-01T18:11:07;3.10;58.66
65637;DHT22;52327;42.622;23.316;2023-02-01T18:13:34;3.05;59.64
65637;DHT22;52327;42.622;23.316;2023-02-01T18:15:59;3.10;58.44
65637;DHT22;52327;42.622;23.316;2023-02-01T18:18:26;3.11;58.92